Cruzeiro Do Canal — CSVG — position and weather

sailwx.info

Track history (hours):
 
Tides and Currents Weather Stations Pressure Air Temp Water Temp Dewpoint Dewpoint Depression Visibility Wind Speed Wind Dir Waves Ship Positions

Cruzeiro Do Canal

Last reported at 2015-Aug-03 02:33 UTC. Time now 2015-Aug-03 17:12 UTC.
Position N 38°32' W 028°37'.

Length 32 m.

Type: Passenger vessel. MMSI: 204701250.

Date/timePositionNaut miles runAvg speedWind from/ knotsBaromVisibWave heightAir tempDewpointWater temp
2015-Aug-03 02:33N 38°32' W 028°37'0 0.4
2015-Aug-03 01:33N 38°32' W 028°37'1 0.1
2015-Aug-02 18:33N 38°32' W 028°37'1 0.6
2015-Aug-02 17:33N 38°31' W 028°38'0 0.4
2015-Aug-02 16:33N 38°32' W 028°38'1 0.1
2015-Aug-02 05:11N 38°32' W 028°37'610.2
2015-Aug-02 04:33N 38°35' W 028°29'1110.9
2015-Aug-02 03:33N 38°39' W 028°17'3 3.1
2015-Aug-02 02:33N 38°37' W 028°14'6 6.0
2015-Aug-02 01:33N 38°32' W 028°19'0 0.0
2015-Aug-01 22:23N 38°32' W 028°19'8 9.4
2015-Aug-01 21:33N 38°38' W 028°14'1 1.2
2015-Aug-01 20:33N 38°39' W 028°13'9 8.7
2015-Aug-01 19:34N 38°32' W 028°19'1111.0
2015-Aug-01 18:33N 38°33' W 028°33'3 3.2
2015-Aug-01 17:34N 38°32' W 028°37'0 0.0
2015-Aug-01 16:34N 38°32' W 028°37'0 0.0
2015-Aug-01 15:33N 38°32' W 028°37'0 0.0
2015-Aug-01 14:34N 38°32' W 028°37'0 0.0
2015-Aug-01 13:34N 38°32' W 028°37'7 7.4
2015-Aug-01 12:34N 38°34' W 028°28'7 7.2
2015-Aug-01 11:33N 38°32' W 028°19'1010.1
2015-Aug-01 10:34N 38°40' W 028°13'6 6.2
2015-Aug-01 09:33N 38°39' W 028°20'1211.9
2015-Aug-01 08:33N 38°34' W 028°34'  
Track history (hours):
 
Tides and Currents Weather Stations Pressure Air Temp Water Temp Dewpoint Dewpoint Depression Visibility Wind Speed Wind Dir Waves Ship Positions

Cruzeiro Do Canal

Last reported at 2015-Aug-03 02:33 UTC. Time now 2015-Aug-03 17:12 UTC.
Position N 38°32' W 028°37'.

Length 32 m.

Type: Passenger vessel. MMSI: 204701250.

Date/timePositionNaut miles runAvg speedWind from/ knotsBaromVisibWave heightAir tempDewpointWater temp
2015-Aug-03 02:33N 38°32' W 028°37'0 0.4
2015-Aug-03 01:33N 38°32' W 028°37'1 0.1
2015-Aug-02 18:33N 38°32' W 028°37'1 0.6
2015-Aug-02 17:33N 38°31' W 028°38'0 0.4
2015-Aug-02 16:33N 38°32' W 028°38'1 0.1
2015-Aug-02 05:11N 38°32' W 028°37'610.2
2015-Aug-02 04:33N 38°35' W 028°29'1110.9
2015-Aug-02 03:33N 38°39' W 028°17'3 3.1
2015-Aug-02 02:33N 38°37' W 028°14'6 6.0
2015-Aug-02 01:33N 38°32' W 028°19'0 0.0
2015-Aug-01 22:23N 38°32' W 028°19'8 9.4
2015-Aug-01 21:33N 38°38' W 028°14'1 1.2
2015-Aug-01 20:33N 38°39' W 028°13'9 8.7
2015-Aug-01 19:34N 38°32' W 028°19'1111.0
2015-Aug-01 18:33N 38°33' W 028°33'3 3.2
2015-Aug-01 17:34N 38°32' W 028°37'0 0.0
2015-Aug-01 16:34N 38°32' W 028°37'0 0.0
2015-Aug-01 15:33N 38°32' W 028°37'0 0.0
2015-Aug-01 14:34N 38°32' W 028°37'0 0.0
2015-Aug-01 13:34N 38°32' W 028°37'7 7.4
2015-Aug-01 12:34N 38°34' W 028°28'7 7.2
2015-Aug-01 11:33N 38°32' W 028°19'1010.1
2015-Aug-01 10:34N 38°40' W 028°13'6 6.2
2015-Aug-01 09:33N 38°39' W 028°20'1211.9
2015-Aug-01 08:33N 38°34' W 028°34'  

Dump ship's entire track history